createdAt,value
2023-08-24T00:00:24.851Z,41.20
2023-08-24T00:02:51.645Z,27.80
2023-08-24T00:05:18.438Z,58.30
2023-08-24T00:07:45.287Z,64.70
2023-08-24T00:10:12.165Z,105.10
2023-08-24T00:12:39.883Z,88.00
2023-08-24T00:15:09.269Z,47.30
2023-08-24T00:17:36.155Z,69.90
2023-08-24T00:20:05.022Z,91.40
2023-08-24T00:22:32.068Z,92.10
2023-08-24T00:24:59.417Z,97.20
2023-08-24T00:27:26.258Z,106.20
2023-08-24T00:29:53.102Z,101.00
2023-08-24T00:32:19.848Z,83.20
2023-08-24T00:34:46.789Z,81.90
2023-08-24T00:37:13.821Z,87.10
2023-08-24T00:39:40.573Z,82.40
2023-08-24T00:42:07.520Z,74.70
2023-08-24T00:44:34.571Z,70.40
2023-08-24T00:47:01.436Z,65.80
2023-08-24T00:49:30.606Z,55.90
2023-08-24T00:51:57.455Z,44.40
2023-08-24T00:54:24.284Z,40.50
2023-08-24T00:56:52.184Z,37.70
2023-08-24T00:59:19.507Z,37.20
2023-08-24T01:01:46.381Z,32.40
2023-08-24T01:04:13.720Z,24.70
2023-08-24T01:06:40.579Z,19.00
2023-08-24T01:09:08.213Z,17.30
2023-08-24T01:11:53.990Z,23.00
2023-08-24T01:14:39.357Z,20.70
2023-08-24T01:17:06.480Z,22.80
2023-08-24T01:19:43.804Z,17.90
2023-08-24T01:22:29.592Z,16.30
2023-08-24T01:25:17.424Z,21.70
2023-08-24T01:27:44.183Z,17.90
2023-08-24T01:30:11.223Z,17.80
2023-08-24T01:32:38.213Z,26.50
2023-08-24T01:35:07.495Z,30.20
2023-08-24T01:37:35.222Z,16.40
2023-08-24T01:40:12.824Z,20.50
2023-08-24T01:42:52.467Z,24.60
2023-08-24T01:45:19.509Z,21.90
2023-08-24T01:47:47.688Z,20.80
2023-08-24T01:50:14.525Z,19.10
2023-08-24T01:52:41.985Z,20.30
2023-08-24T01:55:09.030Z,19.50
2023-08-24T01:57:35.805Z,15.50
2023-08-24T02:00:06.933Z,17.10
2023-08-24T02:02:40.811Z,20.20
2023-08-24T02:05:09.197Z,20.30
2023-08-24T02:07:36.465Z,13.90
2023-08-24T02:10:04.633Z,17.40
2023-08-24T02:12:32.799Z,12.60
2023-08-24T02:14:59.540Z,15.90
2023-08-24T02:17:29.406Z,17.20
2023-08-24T02:19:56.603Z,15.70
2023-08-24T02:22:23.552Z,20.50
2023-08-24T02:24:50.713Z,18.10
2023-08-24T02:27:17.418Z,14.40
2023-08-24T02:29:45.409Z,15.70
2023-08-24T02:32:13.903Z,17.30
2023-08-24T02:34:40.770Z,15.10
2023-08-24T02:37:08.216Z,17.10
2023-08-24T02:39:35.573Z,18.30
2023-08-24T02:42:03.118Z,12.70
2023-08-24T02:44:30.053Z,15.00
2023-08-24T02:46:56.989Z,12.50
2023-08-24T02:49:24.032Z,12.30
2023-08-24T02:51:50.772Z,15.40
2023-08-24T02:54:17.504Z,15.30
2023-08-24T02:56:44.243Z,11.40
2023-08-24T02:59:12.312Z,11.90
2023-08-24T03:01:41.671Z,14.60
2023-08-24T03:04:09.949Z,17.60
2023-08-24T03:06:36.933Z,21.90
2023-08-24T03:09:06.844Z,20.40
2023-08-24T03:11:33.682Z,12.10
2023-08-24T03:14:00.532Z,11.60
2023-08-24T03:16:27.549Z,11.60
2023-08-24T03:18:54.723Z,13.30
2023-08-24T03:21:21.760Z,13.20
2023-08-24T03:23:48.517Z,22.50
2023-08-24T03:26:17.022Z,17.30
2023-08-24T03:28:44.069Z,14.90
2023-08-24T03:31:11.043Z,19.50
2023-08-24T03:33:38.214Z,15.90
2023-08-24T03:36:05.394Z,13.90
2023-08-24T03:38:32.233Z,17.30
2023-08-24T03:41:07.062Z,18.50
2023-08-24T03:43:35.448Z,20.10
2023-08-24T03:46:03.095Z,30.90
2023-08-24T03:48:30.478Z,20.30
2023-08-24T03:50:58.313Z,27.30
2023-08-24T03:53:26.182Z,20.40
2023-08-24T03:55:53.035Z,20.20
2023-08-24T03:58:21.019Z,17.00
2023-08-24T04:00:48.079Z,13.50
2023-08-24T04:03:14.960Z,10.50
2023-08-24T04:05:41.767Z,17.30
2023-08-24T04:08:08.589Z,9.30
2023-08-24T04:10:35.410Z,13.50
2023-08-24T04:13:02.351Z,11.60
2023-08-24T04:15:29.264Z,9.50
2023-08-24T04:17:57.848Z,12.60
2023-08-24T04:20:24.833Z,11.40
2023-08-24T04:22:51.673Z,17.20
2023-08-24T04:25:18.411Z,10.40
2023-08-24T04:27:45.354Z,12.50
2023-08-24T04:30:12.792Z,13.60
2023-08-24T04:32:40.133Z,10.20
2023-08-24T04:35:08.548Z,11.40
2023-08-24T04:37:35.382Z,17.00
2023-08-24T04:40:02.025Z,16.70
2023-08-24T04:42:28.863Z,8.70
2023-08-24T04:44:55.704Z,7.10
2023-08-24T04:47:22.473Z,8.60
2023-08-24T04:49:49.387Z,9.60
2023-08-24T04:52:16.437Z,9.90
2023-08-24T04:54:43.199Z,10.10
2023-08-24T04:57:10.026Z,7.50
2023-08-24T04:59:36.860Z,6.80
2023-08-24T05:02:03.662Z,13.90
2023-08-24T05:04:30.452Z,6.50
2023-08-24T05:06:57.078Z,9.50
2023-08-24T05:09:23.949Z,6.40
2023-08-24T05:11:50.766Z,13.10
2023-08-24T05:14:17.576Z,7.50
2023-08-24T05:16:44.489Z,10.50
2023-08-24T05:19:11.622Z,7.60
2023-08-24T05:21:38.313Z,13.90
2023-08-24T05:24:05.733Z,12.30
2023-08-24T05:26:32.736Z,12.70
2023-08-24T05:28:59.475Z,16.90
2023-08-24T05:31:26.215Z,33.00
2023-08-24T05:33:53.058Z,12.10
2023-08-24T05:36:19.842Z,23.70
2023-08-24T05:38:59.559Z,22.30
2023-08-24T05:41:32.320Z,28.00
2023-08-24T05:43:59.169Z,26.50
2023-08-24T05:46:26.080Z,20.10
2023-08-24T05:48:53.054Z,27.40
2023-08-24T05:51:19.797Z,19.60
2023-08-24T05:53:46.633Z,17.30
2023-08-24T05:56:13.579Z,20.40
2023-08-24T05:58:40.629Z,20.60
2023-08-24T06:01:07.781Z,28.20
2023-08-24T06:03:35.074Z,21.50
2023-08-24T06:06:04.029Z,29.70
2023-08-24T06:08:31.683Z,27.80
2023-08-24T06:10:58.767Z,31.00
2023-08-24T06:13:25.819Z,26.60
2023-08-24T06:15:53.262Z,28.90
2023-08-24T06:20:49.680Z,21.50
2023-08-24T06:23:19.407Z,25.70
2023-08-24T06:25:46.440Z,24.60
2023-08-24T06:28:13.997Z,24.30
2023-08-24T06:30:44.016Z,28.50
2023-08-24T06:33:13.745Z,18.60
2023-08-24T06:35:41.188Z,24.40
2023-08-24T06:38:07.859Z,19.30
2023-08-24T06:40:34.787Z,13.40
2023-08-24T06:43:01.407Z,14.50
2023-08-24T06:45:28.240Z,32.90
2023-08-24T06:47:55.090Z,5.50
2023-08-24T06:50:21.928Z,3.20
2023-08-24T06:52:48.976Z,6.20
2023-08-24T06:55:15.719Z,12.70
2023-08-24T06:57:42.465Z,2.40
2023-08-24T07:00:09.913Z,6.00
2023-08-24T07:02:37.404Z,5.50
2023-08-24T07:05:09.121Z,5.40
2023-08-24T07:07:36.166Z,4.70
2023-08-24T07:10:04.051Z,6.00
2023-08-24T07:12:31.109Z,2.90
2023-08-24T07:14:58.127Z,11.00
2023-08-24T07:17:25.378Z,3.50
2023-08-24T07:22:19.884Z,2.80
2023-08-24T07:24:46.872Z,25.30
2023-08-24T07:27:13.775Z,3.00
2023-08-24T07:29:40.639Z,5.30
2023-08-24T07:32:07.402Z,5.50
2023-08-24T07:34:34.815Z,3.10
2023-08-24T07:39:28.952Z,6.10
2023-08-24T07:41:55.748Z,4.20
2023-08-24T07:44:22.813Z,20.90
2023-08-24T07:46:53.116Z,18.50
2023-08-24T07:49:19.960Z,2.90
2023-08-24T07:51:47.939Z,2.40
2023-08-24T07:54:16.156Z,6.60
2023-08-24T07:56:43.287Z,2.30
2023-08-24T07:59:10.104Z,8.10
2023-08-24T08:01:36.739Z,22.80
2023-08-24T08:04:03.781Z,9.60
2023-08-24T08:06:30.936Z,6.80
2023-08-24T08:08:58.793Z,7.00
2023-08-24T08:11:25.631Z,4.50
2023-08-24T08:13:52.306Z,2.00
2023-08-24T08:16:19.086Z,2.60
2023-08-24T08:18:45.868Z,4.60
2023-08-24T08:21:19.732Z,7.40
2023-08-24T08:23:48.861Z,8.90
2023-08-24T08:26:16.436Z,45.20
2023-08-24T08:28:43.484Z,9.20
2023-08-24T08:31:10.612Z,5.10
2023-08-24T08:33:37.387Z,10.60
2023-08-24T08:36:04.665Z,44.50
2023-08-24T08:38:31.784Z,24.70
2023-08-24T08:41:03.522Z,13.40
2023-08-24T08:43:33.389Z,7.70
2023-08-24T08:46:00.462Z,9.90
2023-08-24T08:48:27.352Z,14.90
2023-08-24T08:50:56.413Z,7.10
2023-08-24T08:53:23.351Z,9.90
2023-08-24T08:55:54.521Z,2.70
2023-08-24T08:58:21.366Z,7.40
2023-08-24T09:00:48.349Z,7.80
2023-08-24T09:03:18.163Z,9.60
2023-08-24T09:05:48.430Z,16.10
2023-08-24T09:08:17.199Z,31.30
2023-08-24T09:10:45.301Z,7.90
2023-08-24T09:13:12.757Z,12.50
2023-08-24T09:18:07.435Z,4.10
2023-08-24T09:20:34.748Z,3.90
2023-08-24T09:23:01.421Z,75.10
2023-08-24T09:25:28.211Z,13.00
2023-08-24T09:27:58.591Z,9.20
2023-08-24T09:30:35.752Z,3.50
2023-08-24T09:33:03.707Z,3.40
2023-08-24T09:35:35.867Z,4.60
2023-08-24T09:38:19.166Z,10.90
2023-08-24T09:40:49.793Z,7.80
2023-08-24T09:43:16.494Z,5.50
2023-08-24T09:45:56.466Z,18.60
2023-08-24T09:48:24.427Z,158.40
2023-08-24T09:50:52.478Z,37.90
2023-08-24T09:53:22.854Z,11.60
2023-08-24T09:55:56.628Z,28.70
2023-08-24T09:58:23.573Z,22.50
2023-08-24T10:00:50.218Z,9.70
2023-08-24T10:03:22.372Z,4.20
2023-08-24T10:05:57.949Z,8.30
2023-08-24T10:08:29.597Z,5.10
2023-08-24T10:10:59.218Z,2.80
2023-08-24T10:13:35.079Z,3.20
2023-08-24T10:16:02.298Z,4.70
2023-08-24T10:18:29.254Z,7.90
2023-08-24T10:20:56.718Z,4.00
2023-08-24T10:23:23.615Z,3.30
2023-08-24T10:25:51.471Z,3.70
2023-08-24T10:28:18.924Z,2.80
2023-08-24T10:30:46.245Z,5.30
2023-08-24T10:33:13.980Z,5.80
2023-08-24T10:35:41.145Z,6.60
2023-08-24T10:38:07.880Z,6.60
2023-08-24T10:40:36.083Z,4.80
2023-08-24T10:43:04.937Z,6.80
2023-08-24T10:45:57.400Z,4.80
2023-08-24T10:48:47.158Z,4.80
2023-08-24T10:51:13.922Z,4.70
2023-08-24T10:53:41.346Z,4.40
2023-08-24T10:58:41.715Z,6.20
2023-08-24T11:03:43.570Z,5.20
2023-08-24T11:06:21.463Z,7.60
